METAR Data
IDs: Format: Raw Decoded Include TAF

Data at: 1223 UTC 24 May 2022

KSAT 241151Z 12003KT 10SM FEW010 SCT250 21/18 A2975 RMK AO2 SLP058 70001 T02110178 10233 20211 56024